createdAt,value
2017-02-24T00:00:58.589Z,982.65
2017-02-24T00:01:58.619Z,982.59
2017-02-24T00:02:58.648Z,982.73
2017-02-24T00:03:58.672Z,982.78
2017-02-24T00:04:58.702Z,982.77
2017-02-24T00:05:58.725Z,982.86
2017-02-24T00:06:58.754Z,982.83
2017-02-24T00:07:58.778Z,982.82
2017-02-24T00:08:58.807Z,982.93
2017-02-24T00:09:58.836Z,982.91
2017-02-24T00:10:58.866Z,982.88
2017-02-24T00:11:58.895Z,982.98
2017-02-24T00:12:58.924Z,982.95
2017-02-24T00:13:58.944Z,982.76
2017-02-24T00:14:58.973Z,982.92
2017-02-24T00:15:58.997Z,982.93
2017-02-24T00:16:59.026Z,982.9
2017-02-24T00:17:59.055Z,983.02
2017-02-24T00:18:59.079Z,982.88
2017-02-24T00:19:59.109Z,982.85
2017-02-24T00:20:59.129Z,982.99
2017-02-24T00:21:59.162Z,982.98
2017-02-24T00:22:59.186Z,982.98
2017-02-24T00:23:59.215Z,983
2017-02-24T00:24:59.244Z,982.99
2017-02-24T00:25:59.520Z,982.99
2017-02-24T00:26:59.297Z,983.06
2017-02-24T00:27:59.318Z,983.08
2017-02-24T00:28:59.351Z,983.03
2017-02-24T00:29:59.380Z,983.03
2017-02-24T00:30:59.657Z,983.01
2017-02-24T00:31:59.436Z,983.04
2017-02-24T00:32:59.458Z,983.05
2017-02-24T00:33:59.486Z,983.05
2017-02-24T00:34:59.512Z,983.17
2017-02-24T00:35:59.789Z,982.96
2017-02-24T00:36:59.568Z,983.09
2017-02-24T00:37:59.589Z,983.07
2017-02-24T00:38:59.622Z,983.06
2017-02-24T00:39:59.651Z,983.18
2017-02-24T00:40:59.925Z,983.13
2017-02-24T00:41:59.701Z,983.14
2017-02-24T00:42:59.725Z,983.18
2017-02-24T00:43:59.758Z,983.23
2017-02-24T00:44:59.783Z,983.28
2017-02-24T00:46:00.063Z,983.34
2017-02-24T00:46:59.839Z,983.31
2017-02-24T00:47:59.865Z,983.42
2017-02-24T00:48:59.896Z,983.39
2017-02-24T00:49:59.919Z,983.51
2017-02-24T00:51:00.194Z,983.43
2017-02-24T00:51:59.972Z,983.47
2017-02-24T00:53:00.004Z,983.42
2017-02-24T00:54:00.030Z,983.43
2017-02-24T00:55:00.055Z,983.45
2017-02-24T00:56:00.331Z,983.4
2017-02-24T00:57:00.108Z,983.54
2017-02-24T00:58:00.137Z,983.48
2017-02-24T00:59:00.164Z,983.44
2017-02-24T01:00:00.188Z,983.52
2017-02-24T01:01:00.466Z,983.57
2017-02-24T01:02:00.244Z,983.48
2017-02-24T01:03:00.269Z,983.52
2017-02-24T01:04:00.294Z,983.55
2017-02-24T01:05:00.326Z,983.57
2017-02-24T01:06:00.351Z,983.49
2017-02-24T01:07:00.380Z,983.54
2017-02-24T01:08:00.404Z,983.62
2017-02-24T01:09:00.429Z,983.44
2017-02-24T01:10:00.458Z,983.5
2017-02-24T01:11:00.486Z,983.55
2017-02-24T01:12:00.511Z,983.56
2017-02-24T01:13:00.540Z,983.53
2017-02-24T01:14:00.565Z,983.56
2017-02-24T01:15:00.594Z,983.64
2017-02-24T01:16:00.623Z,983.5
2017-02-24T01:17:00.649Z,983.62
2017-02-24T01:18:00.670Z,983.55
2017-02-24T01:19:00.700Z,983.49
2017-02-24T01:20:00.729Z,983.55
2017-02-24T01:21:00.754Z,983.55
2017-02-24T01:22:00.783Z,983.6
2017-02-24T01:23:00.808Z,983.65
2017-02-24T01:24:00.836Z,983.64
2017-02-24T01:25:00.861Z,983.72
2017-02-24T01:26:00.890Z,983.74
2017-02-24T01:27:00.915Z,983.78
2017-02-24T01:28:00.944Z,983.72
2017-02-24T01:29:00.968Z,983.72
2017-02-24T01:30:00.997Z,983.76
2017-02-24T01:31:01.022Z,983.78
2017-02-24T01:32:01.050Z,983.77
2017-02-24T01:33:01.075Z,983.8
2017-02-24T01:34:01.105Z,983.84
2017-02-24T01:35:01.128Z,983.79
2017-02-24T01:36:01.157Z,983.75
2017-02-24T01:37:01.186Z,983.81
2017-02-24T01:38:01.211Z,983.76
2017-02-24T01:39:01.239Z,983.81
2017-02-24T01:40:01.260Z,983.95
2017-02-24T01:41:01.293Z,983.88
2017-02-24T01:42:01.318Z,983.77
2017-02-24T01:43:01.347Z,983.91
2017-02-24T01:44:01.371Z,983.85
2017-02-24T01:45:01.400Z,983.94
2017-02-24T01:46:01.425Z,984
2017-02-24T01:47:01.455Z,983.99
2017-02-24T01:48:01.481Z,983.96
2017-02-24T01:49:01.507Z,983.94
2017-02-24T01:50:01.532Z,984.11
2017-02-24T01:51:01.561Z,984.16
2017-02-24T01:52:01.585Z,983.99
2017-02-24T01:53:01.614Z,984.06
2017-02-24T01:54:01.641Z,984.06
2017-02-24T01:55:01.668Z,984.03
2017-02-24T01:56:01.692Z,984.08
2017-02-24T01:57:01.721Z,984.12
2017-02-24T01:58:01.746Z,984.07
2017-02-24T01:59:01.774Z,984.11
2017-02-24T02:00:01.799Z,984.11
2017-02-24T02:01:01.827Z,984.15
2017-02-24T02:02:01.853Z,984.12
2017-02-24T02:03:01.881Z,984.17
2017-02-24T02:04:01.907Z,984.14
2017-02-24T02:05:01.933Z,984.32
2017-02-24T02:06:01.957Z,984.29
2017-02-24T02:07:01.989Z,984.35
2017-02-24T02:08:02.014Z,984.46
2017-02-24T02:09:02.042Z,984.56
2017-02-24T02:10:02.066Z,984.7
2017-02-24T02:11:02.096Z,984.87
2017-02-24T02:12:02.120Z,984.89
2017-02-24T02:13:02.148Z,984.97
2017-02-24T02:14:02.173Z,984.85
2017-02-24T02:15:02.202Z,984.89
2017-02-24T02:16:02.223Z,984.9
2017-02-24T02:17:02.256Z,984.95
2017-02-24T02:18:02.280Z,984.98
2017-02-24T02:19:02.310Z,984.88
2017-02-24T02:20:02.334Z,984.85
2017-02-24T02:21:02.365Z,984.87
2017-02-24T02:22:02.388Z,985.02
2017-02-24T02:23:02.417Z,985.01
2017-02-24T02:24:02.442Z,985.05
2017-02-24T02:25:02.471Z,985.18
2017-02-24T02:26:02.494Z,985.26
2017-02-24T02:27:02.519Z,985.31
2017-02-24T02:28:02.548Z,985.32
2017-02-24T02:29:02.577Z,985.26
2017-02-24T02:30:02.604Z,985.36
2017-02-24T02:31:02.630Z,985.32
2017-02-24T02:32:02.655Z,985.3
2017-02-24T02:33:02.684Z,985.31
2017-02-24T02:34:02.709Z,985.31
2017-02-24T02:35:02.738Z,985.27
2017-02-24T02:36:02.762Z,985.19
2017-02-24T02:37:02.786Z,985.17
2017-02-24T02:38:02.816Z,985.17
2017-02-24T02:39:02.840Z,985.13
2017-02-24T02:40:02.868Z,985.16
2017-02-24T02:41:02.897Z,985.2
2017-02-24T02:42:03.173Z,985.25
2017-02-24T02:43:02.947Z,985.24
2017-02-24T02:44:02.978Z,985.28
2017-02-24T02:45:03.000Z,985.3
2017-02-24T02:46:03.030Z,985.35
2017-02-24T02:47:03.305Z,985.32
2017-02-24T02:48:03.079Z,985.37
2017-02-24T02:49:03.110Z,985.38
2017-02-24T02:50:03.135Z,985.43
2017-02-24T02:51:03.161Z,985.44
2017-02-24T02:52:03.436Z,985.41
2017-02-24T02:53:03.214Z,985.41
2017-02-24T02:54:03.243Z,985.52
2017-02-24T02:55:03.269Z,985.46
2017-02-24T02:56:03.295Z,985.48
2017-02-24T02:57:03.321Z,985.48
2017-02-24T02:58:03.348Z,985.52
2017-02-24T02:59:03.373Z,985.47
2017-02-24T03:00:03.401Z,985.49
2017-02-24T03:01:03.428Z,985.4
2017-02-24T03:02:03.452Z,985.45
2017-02-24T03:03:03.482Z,985.5
2017-02-24T03:04:03.507Z,985.56
2017-02-24T03:05:03.535Z,985.58
2017-02-24T03:06:03.562Z,985.59
2017-02-24T03:07:03.585Z,985.64
2017-02-24T03:08:03.613Z,985.57
2017-02-24T03:09:03.638Z,985.59
2017-02-24T03:10:03.666Z,985.55
2017-02-24T03:11:03.691Z,985.58
2017-02-24T03:12:03.719Z,985.63
2017-02-24T03:13:03.744Z,985.56
2017-02-24T03:14:03.767Z,985.59
2017-02-24T03:15:03.799Z,985.57
2017-02-24T03:16:03.827Z,985.56
2017-02-24T03:17:03.855Z,985.58
2017-02-24T03:18:03.877Z,985.54
2017-02-24T03:19:03.908Z,985.59
2017-02-24T03:20:03.925Z,985.54
2017-02-24T03:21:03.959Z,985.57
2017-02-24T03:22:03.988Z,985.61
2017-02-24T03:23:04.012Z,985.62
2017-02-24T03:24:04.035Z,985.62
2017-02-24T03:25:04.066Z,985.62
2017-02-24T03:26:04.091Z,985.65
2017-02-24T03:27:04.121Z,985.64
2017-02-24T03:28:04.144Z,985.68
2017-02-24T03:29:04.170Z,985.68
2017-02-24T03:30:04.197Z,985.72
2017-02-24T03:31:04.223Z,985.75
2017-02-24T03:32:04.251Z,985.73
2017-02-24T03:33:04.276Z,985.8
2017-02-24T03:34:04.304Z,985.77
2017-02-24T03:35:04.329Z,985.83
2017-02-24T03:36:04.358Z,985.85
2017-02-24T03:37:04.379Z,985.89
2017-02-24T03:38:04.411Z,985.93
2017-02-24T03:39:04.431Z,985.9
2017-02-24T03:40:04.459Z,985.92
2017-02-24T03:41:04.485Z,985.92
2017-02-24T03:42:04.545Z,985.95
2017-02-24T03:43:04.542Z,985.99
2017-02-24T03:44:04.566Z,985.97
2017-02-24T03:45:04.595Z,986.06
2017-02-24T03:46:04.616Z,986.12
2017-02-24T03:47:04.649Z,986.1
2017-02-24T03:48:04.673Z,986.12
2017-02-24T03:49:04.702Z,986.17
2017-02-24T03:50:04.726Z,986.11
2017-02-24T03:51:04.753Z,986.17
2017-02-24T03:52:04.780Z,986.16
2017-02-24T03:53:04.804Z,986.21
2017-02-24T03:54:04.833Z,986.21
2017-02-24T03:55:04.858Z,986.24
2017-02-24T03:56:04.885Z,986.28
2017-02-24T03:57:04.906Z,986.37
2017-02-24T03:58:05.187Z,986.33
2017-02-24T03:59:04.963Z,986.33
2017-02-24T04:00:04.989Z,986.33
2017-02-24T04:01:05.017Z,986.33
2017-02-24T04:02:05.042Z,986.34
2017-02-24T04:03:05.322Z,986.35
2017-02-24T04:04:05.094Z,986.37
2017-02-24T04:05:05.123Z,986.34
2017-02-24T04:06:05.149Z,986.39
2017-02-24T04:07:05.173Z,986.41
2017-02-24T04:08:05.451Z,986.43
2017-02-24T04:09:05.226Z,986.49
2017-02-24T04:10:05.255Z,986.5
2017-02-24T04:11:05.279Z,986.49
2017-02-24T04:12:05.308Z,986.46
2017-02-24T04:13:05.584Z,986.48
2017-02-24T04:14:05.357Z,986.52
2017-02-24T04:15:05.386Z,986.5
2017-02-24T04:16:05.411Z,986.51
2017-02-24T04:17:05.439Z,986.47
2017-02-24T04:18:05.715Z,986.5
2017-02-24T04:19:05.494Z,986.55
2017-02-24T04:20:05.522Z,986.49
2017-02-24T04:21:05.542Z,986.53
2017-02-24T04:22:05.569Z,986.51
2017-02-24T04:23:05.850Z,986.54
2017-02-24T04:24:05.628Z,986.54
2017-02-24T04:25:05.649Z,986.52
2017-02-24T04:26:05.672Z,986.56
2017-02-24T04:27:05.700Z,986.55
2017-02-24T04:28:05.977Z,986.62
2017-02-24T04:29:05.756Z,986.61
2017-02-24T04:30:05.780Z,986.66
2017-02-24T04:31:05.805Z,986.65
2017-02-24T04:32:05.833Z,986.66
2017-02-24T04:33:06.110Z,986.67
2017-02-24T04:34:05.883Z,986.69
2017-02-24T04:35:05.912Z,986.72
2017-02-24T04:36:05.941Z,986.72
2017-02-24T04:37:05.966Z,986.72
2017-02-24T04:38:06.247Z,986.76
2017-02-24T04:39:06.019Z,986.78
2017-02-24T04:40:06.044Z,986.83
2017-02-24T04:41:06.073Z,986.83
2017-02-24T04:42:06.098Z,986.85
2017-02-24T04:43:06.378Z,986.79
2017-02-24T04:44:06.151Z,986.84
2017-02-24T04:45:06.180Z,986.87
2017-02-24T04:46:06.205Z,986.84
2017-02-24T04:47:06.229Z,986.88
2017-02-24T04:48:06.510Z,986.83
2017-02-24T04:49:06.283Z,986.89
2017-02-24T04:50:06.304Z,986.89
2017-02-24T04:51:06.337Z,986.92
2017-02-24T04:52:06.362Z,986.89
2017-02-24T04:53:06.391Z,986.96
2017-02-24T04:54:06.416Z,986.98
2017-02-24T04:55:06.444Z,986.96
2017-02-24T04:56:06.468Z,986.95
2017-02-24T04:57:06.493Z,986.99
2017-02-24T04:58:06.522Z,987
2017-02-24T04:59:06.547Z,986.99
2017-02-24T05:00:06.576Z,987.01
2017-02-24T05:01:06.600Z,986.97
2017-02-24T05:02:06.629Z,987.02
2017-02-24T05:03:06.654Z,987.01
2017-02-24T05:04:06.679Z,987.03
2017-02-24T05:05:06.707Z,987.06
2017-02-24T05:06:06.728Z,987.05
2017-02-24T05:07:06.761Z,987.05
2017-02-24T05:08:06.785Z,987.07
2017-02-24T05:09:06.810Z,987.11
2017-02-24T05:10:06.839Z,987.1
2017-02-24T05:11:06.860Z,987.11
2017-02-24T05:12:06.889Z,987.1
2017-02-24T05:13:06.917Z,987.13
2017-02-24T05:14:06.945Z,987.12
2017-02-24T05:15:06.970Z,987.17
2017-02-24T05:16:06.996Z,987.17
2017-02-24T05:17:07.025Z,987.18
2017-02-24T05:18:07.045Z,987.25
2017-02-24T05:19:07.074Z,987.28
2017-02-24T05:20:07.103Z,987.22
2017-02-24T05:21:07.127Z,987.29
2017-02-24T05:22:07.152Z,987.28
2017-02-24T05:23:07.180Z,987.29
2017-02-24T05:24:07.210Z,987.33
2017-02-24T05:25:07.234Z,987.31
2017-02-24T05:26:07.258Z,987.34
2017-02-24T05:27:07.284Z,987.32
2017-02-24T05:28:07.313Z,987.38
2017-02-24T05:29:07.337Z,987.33
2017-02-24T05:30:07.365Z,987.39
2017-02-24T05:31:07.392Z,987.38
2017-02-24T05:32:07.420Z,987.44
2017-02-24T05:33:07.443Z,987.42
2017-02-24T05:34:07.473Z,987.43
2017-02-24T05:35:07.498Z,987.46
2017-02-24T05:36:07.525Z,987.45
2017-02-24T05:37:07.552Z,987.49
2017-02-24T05:38:07.573Z,987.51
2017-02-24T05:39:07.605Z,987.56
2017-02-24T05:40:07.631Z,987.59
2017-02-24T05:41:07.655Z,987.64
2017-02-24T05:42:07.684Z,987.65
2017-02-24T05:43:07.708Z,987.61
2017-02-24T05:44:07.737Z,987.6
2017-02-24T05:45:07.762Z,987.59
2017-02-24T05:46:07.791Z,987.6
2017-02-24T05:47:07.815Z,987.59
2017-02-24T05:48:07.841Z,987.67
2017-02-24T05:49:07.869Z,987.67
2017-02-24T05:50:07.898Z,987.69
2017-02-24T05:51:07.922Z,987.66
2017-02-24T05:52:07.947Z,987.7
2017-02-24T05:53:07.977Z,987.72
2017-02-24T05:54:08.001Z,987.76
2017-02-24T05:55:08.031Z,987.74
2017-02-24T05:56:08.054Z,987.73
2017-02-24T05:57:08.085Z,987.75
2017-02-24T05:58:08.111Z,987.78
2017-02-24T05:59:08.128Z,987.82
2017-02-24T06:00:08.163Z,987.83
2017-02-24T06:01:08.186Z,987.86
2017-02-24T06:02:08.216Z,987.84
2017-02-24T06:03:08.240Z,987.85
2017-02-24T06:04:08.269Z,987.93
2017-02-24T06:05:08.295Z,987.87
2017-02-24T06:06:08.320Z,987.91
2017-02-24T06:07:08.349Z,987.84
2017-02-24T06:08:08.370Z,987.89
2017-02-24T06:09:08.402Z,987.9
2017-02-24T06:10:08.427Z,987.85
2017-02-24T06:11:08.455Z,987.83
2017-02-24T06:12:08.480Z,987.9
2017-02-24T06:13:08.508Z,987.96
2017-02-24T06:14:08.533Z,987.98
2017-02-24T06:15:08.554Z,988.03
2017-02-24T06:16:08.587Z,988.09
2017-02-24T06:17:08.612Z,988.06
2017-02-24T06:18:08.641Z,988.08
2017-02-24T06:19:08.917Z,988.08
2017-02-24T06:20:08.695Z,988.07
2017-02-24T06:21:08.720Z,988.16
2017-02-24T06:22:08.749Z,988.15
2017-02-24T06:23:08.774Z,988.18
2017-02-24T06:24:09.053Z,988.2
2017-02-24T06:25:08.827Z,988.21
2017-02-24T06:26:08.856Z,988.25
2017-02-24T06:27:08.880Z,988.24
2017-02-24T06:28:08.908Z,988.22
2017-02-24T06:29:09.189Z,988.24
2017-02-24T06:30:08.959Z,988.23
2017-02-24T06:31:08.988Z,988.26
2017-02-24T06:32:09.013Z,988.32
2017-02-24T06:33:09.041Z,988.34
2017-02-24T06:34:09.317Z,988.35
2017-02-24T06:35:09.095Z,988.32
2017-02-24T06:36:09.113Z,988.33
2017-02-24T06:37:09.150Z,988.36
2017-02-24T06:38:09.174Z,988.32
2017-02-24T06:39:09.446Z,988.35
2017-02-24T06:40:09.227Z,988.28
2017-02-24T06:41:09.251Z,988.34
2017-02-24T06:42:09.280Z,988.35
2017-02-24T06:43:09.306Z,988.42
2017-02-24T06:44:09.582Z,988.42
2017-02-24T06:45:09.359Z,988.41
2017-02-24T06:46:09.392Z,988.46
2017-02-24T06:47:09.413Z,988.52
2017-02-24T06:48:09.437Z,988.5
2017-02-24T06:49:09.466Z,988.54
2017-02-24T06:50:09.493Z,988.6
2017-02-24T06:51:09.520Z,988.64
2017-02-24T06:52:09.551Z,988.66
2017-02-24T06:53:09.574Z,988.66
2017-02-24T06:54:09.602Z,988.69
2017-02-24T06:55:09.628Z,988.64
2017-02-24T06:56:09.655Z,988.71
2017-02-24T06:57:09.676Z,988.73
2017-02-24T06:58:09.709Z,988.71
2017-02-24T06:59:09.734Z,988.69
2017-02-24T07:00:09.763Z,988.73
2017-02-24T07:01:09.788Z,988.71
2017-02-24T07:02:09.817Z,988.78
2017-02-24T07:03:09.842Z,988.78
2017-02-24T07:04:09.870Z,988.77
2017-02-24T07:05:09.897Z,988.77
2017-02-24T07:06:09.922Z,988.76
2017-02-24T07:07:09.953Z,988.78
2017-02-24T07:08:09.978Z,988.75
2017-02-24T07:09:10.003Z,988.87
2017-02-24T07:10:10.031Z,988.83
2017-02-24T07:11:10.060Z,988.91
2017-02-24T07:12:10.085Z,988.92
2017-02-24T07:13:10.114Z,988.97
2017-02-24T07:14:10.138Z,988.93
2017-02-24T07:15:10.168Z,988.93
2017-02-24T07:16:10.191Z,988.95
2017-02-24T07:17:10.221Z,988.89
2017-02-24T07:18:10.246Z,988.91
2017-02-24T07:19:10.279Z,988.91
2017-02-24T07:20:10.299Z,988.94
2017-02-24T07:21:10.332Z,988.89
2017-02-24T07:22:10.357Z,988.94
2017-02-24T07:23:10.378Z,988.94
2017-02-24T07:24:10.411Z,988.96
2017-02-24T07:25:10.448Z,988.97
2017-02-24T07:26:10.464Z,988.95
2017-02-24T07:27:10.493Z,989.01
2017-02-24T07:28:10.513Z,989
2017-02-24T07:29:10.546Z,989.03
2017-02-24T07:30:10.575Z,989.11
2017-02-24T07:31:10.600Z,989.07
2017-02-24T07:32:10.628Z,989.13
2017-02-24T07:33:10.654Z,989.13
2017-02-24T07:34:10.682Z,989.15
2017-02-24T07:35:10.711Z,989.15
2017-02-24T07:36:10.740Z,989.14
2017-02-24T07:37:10.765Z,989.21
2017-02-24T07:38:10.791Z,989.19
2017-02-24T07:39:10.819Z,989.19
2017-02-24T07:40:10.847Z,989.25
2017-02-24T07:41:10.877Z,989.21
2017-02-24T07:42:10.901Z,989.27
2017-02-24T07:43:10.925Z,989.28
2017-02-24T07:44:10.958Z,989.31
2017-02-24T07:45:10.983Z,989.28
2017-02-24T07:46:11.012Z,989.33
2017-02-24T07:47:11.040Z,989.32
2017-02-24T07:48:11.065Z,989.37
2017-02-24T07:49:11.094Z,989.4
2017-02-24T07:50:11.375Z,989.39
2017-02-24T07:51:11.148Z,989.43
2017-02-24T07:52:11.174Z,989.47
2017-02-24T07:53:11.205Z,989.49
2017-02-24T07:54:11.237Z,989.5
2017-02-24T07:55:11.510Z,989.51
2017-02-24T07:56:11.284Z,989.49
2017-02-24T07:57:11.313Z,989.51
2017-02-24T07:58:11.337Z,989.53
2017-02-24T07:59:11.370Z,989.51
2017-02-24T08:00:11.646Z,989.53
2017-02-24T08:01:11.423Z,989.57
2017-02-24T08:02:11.451Z,989.53
2017-02-24T08:03:11.479Z,989.6
2017-02-24T08:04:11.506Z,989.6
2017-02-24T08:05:11.785Z,989.67
2017-02-24T08:06:11.556Z,989.68
2017-02-24T08:07:11.588Z,989.65
2017-02-24T08:08:11.613Z,989.68
2017-02-24T08:09:11.643Z,989.72
2017-02-24T08:10:11.922Z,989.76
2017-02-24T08:11:11.695Z,989.79
2017-02-24T08:12:11.724Z,989.8
2017-02-24T08:13:11.753Z,989.83
2017-02-24T08:14:11.798Z,989.81
2017-02-24T08:15:12.057Z,989.85
2017-02-24T08:16:11.834Z,989.85
2017-02-24T08:17:11.859Z,989.87
2017-02-24T08:18:11.888Z,989.91
2017-02-24T08:19:11.918Z,989.87
2017-02-24T08:20:12.193Z,989.85
2017-02-24T08:21:11.971Z,989.88
2017-02-24T08:22:11.996Z,989.88
2017-02-24T08:23:12.025Z,989.9
2017-02-24T08:24:12.053Z,989.88
2017-02-24T08:25:12.329Z,989.9
2017-02-24T08:26:12.107Z,989.95
2017-02-24T08:27:12.136Z,989.92
2017-02-24T08:28:12.161Z,989.92
2017-02-24T08:29:12.185Z,990.03
2017-02-24T08:30:12.470Z,990.05
2017-02-24T08:31:12.242Z,990.07
2017-02-24T08:32:12.267Z,990.05
2017-02-24T08:33:12.300Z,990.05
2017-02-24T08:34:12.329Z,990.07
2017-02-24T08:35:12.604Z,990.06
2017-02-24T08:36:12.382Z,990.05
2017-02-24T08:37:12.411Z,990.03
2017-02-24T08:38:12.436Z,990.02
2017-02-24T08:39:12.465Z,990.04
2017-02-24T08:40:12.495Z,990.07
2017-02-24T08:41:12.522Z,990.17
2017-02-24T08:42:12.551Z,990.14
2017-02-24T08:43:12.576Z,990.22
2017-02-24T08:44:12.604Z,990.14
2017-02-24T08:45:12.632Z,990.22
2017-02-24T08:46:12.662Z,990.18
2017-02-24T08:47:12.688Z,990.18
2017-02-24T08:48:12.722Z,990.19
2017-02-24T08:49:12.744Z,990.2
2017-02-24T08:50:12.773Z,990.23
2017-02-24T08:51:12.802Z,990.16
2017-02-24T08:52:12.831Z,990.21
2017-02-24T08:53:12.859Z,990.23
2017-02-24T08:54:12.888Z,990.2
2017-02-24T08:55:12.912Z,990.12
2017-02-24T08:56:12.940Z,990.21
2017-02-24T08:57:12.970Z,990.21
2017-02-24T08:58:13.000Z,990.24
2017-02-24T08:59:13.027Z,990.24
2017-02-24T09:00:13.057Z,990.23
2017-02-24T09:01:13.084Z,990.24
2017-02-24T09:02:13.110Z,990.29
2017-02-24T09:03:13.139Z,990.35
2017-02-24T09:04:13.167Z,990.3
2017-02-24T09:05:13.197Z,990.33
2017-02-24T09:06:13.225Z,990.37
2017-02-24T09:07:13.248Z,990.32
2017-02-24T09:08:13.279Z,990.37
2017-02-24T09:09:13.307Z,990.5
2017-02-24T09:10:13.337Z,990.43
2017-02-24T09:11:13.361Z,990.39
2017-02-24T09:12:13.390Z,990.4
2017-02-24T09:13:13.414Z,990.37
2017-02-24T09:14:13.447Z,990.41
2017-02-24T09:15:13.476Z,990.5
2017-02-24T09:16:13.501Z,990.45
2017-02-24T09:17:13.529Z,990.43
2017-02-24T09:18:13.554Z,990.4
2017-02-24T09:19:13.583Z,990.39
2017-02-24T09:20:13.612Z,990.37
2017-02-24T09:21:13.640Z,990.54
2017-02-24T09:22:13.669Z,990.52
2017-02-24T09:23:13.690Z,990.56
2017-02-24T09:24:13.724Z,990.53
2017-02-24T09:25:13.752Z,990.58
2017-02-24T09:26:13.777Z,990.61
2017-02-24T09:27:13.805Z,990.65
2017-02-24T09:28:13.829Z,990.59
2017-02-24T09:29:13.862Z,990.57
2017-02-24T09:30:13.887Z,990.55
2017-02-24T09:31:13.916Z,990.61
2017-02-24T09:32:13.945Z,990.63
2017-02-24T09:33:13.969Z,990.62
2017-02-24T09:34:13.998Z,990.64
2017-02-24T09:35:14.027Z,990.65
2017-02-24T09:36:14.052Z,990.7
2017-02-24T09:37:14.081Z,990.74
2017-02-24T09:38:14.105Z,990.72
2017-02-24T09:39:14.130Z,990.65
2017-02-24T09:40:14.163Z,990.76
2017-02-24T09:41:14.187Z,990.77
2017-02-24T09:42:14.214Z,990.75
2017-02-24T09:43:14.241Z,990.76
2017-02-24T09:44:14.273Z,990.73
2017-02-24T09:45:14.302Z,990.83
2017-02-24T09:46:14.326Z,990.89
2017-02-24T09:47:14.356Z,990.95
2017-02-24T09:48:14.377Z,990.9
2017-02-24T09:49:14.408Z,990.89
2017-02-24T09:50:14.439Z,990.84
2017-02-24T09:51:14.463Z,990.85
2017-02-24T09:52:14.490Z,990.87
2017-02-24T09:53:14.521Z,990.92
2017-02-24T09:54:14.545Z,990.89
2017-02-24T09:55:14.573Z,990.86
2017-02-24T09:56:14.602Z,990.92
2017-02-24T09:57:14.631Z,990.91
2017-02-24T09:58:14.652Z,990.98
2017-02-24T09:59:14.684Z,990.98
2017-02-24T10:00:14.710Z,991.01
2017-02-24T10:01:14.991Z,991.1
2017-02-24T10:02:14.767Z,991.13
2017-02-24T10:03:14.791Z,991.11
2017-02-24T10:04:14.820Z,991.11
2017-02-24T10:05:14.845Z,991.12
2017-02-24T10:06:15.121Z,991.13
2017-02-24T10:07:14.903Z,991.09
2017-02-24T10:08:14.926Z,991.13
2017-02-24T10:09:14.955Z,991.19
2017-02-24T10:10:14.984Z,991.2
2017-02-24T10:11:15.256Z,991.15
2017-02-24T10:12:15.037Z,991.2
2017-02-24T10:13:15.066Z,991.19
2017-02-24T10:14:15.089Z,991.22
2017-02-24T10:15:15.119Z,991.18
2017-02-24T10:16:15.399Z,991.13
2017-02-24T10:17:15.173Z,991.18
2017-02-24T10:18:15.202Z,991.23
2017-02-24T10:19:15.231Z,991.2
2017-02-24T10:20:15.255Z,991.22
2017-02-24T10:21:15.536Z,991.28
2017-02-24T10:22:15.308Z,991.31
2017-02-24T10:23:15.337Z,991.31
2017-02-24T10:24:15.367Z,991.33
2017-02-24T10:25:15.395Z,991.33
2017-02-24T10:26:15.670Z,991.31
2017-02-24T10:27:15.453Z,991.27
2017-02-24T10:28:15.481Z,991.36
2017-02-24T10:29:15.502Z,991.37
2017-02-24T10:30:15.530Z,991.34
2017-02-24T10:31:15.560Z,991.36
2017-02-24T10:32:15.583Z,991.41
2017-02-24T10:33:15.613Z,991.43
2017-02-24T10:34:15.641Z,991.34
2017-02-24T10:35:15.667Z,991.24
2017-02-24T10:36:15.690Z,991.29
2017-02-24T10:37:15.723Z,991.27
2017-02-24T10:38:15.748Z,991.22
2017-02-24T10:39:15.777Z,991.11
2017-02-24T10:40:15.806Z,991.17
2017-02-24T10:41:15.829Z,991.17
2017-02-24T10:42:15.864Z,991.16
2017-02-24T10:43:15.888Z,991.22
2017-02-24T10:44:15.916Z,991.27
2017-02-24T10:45:15.942Z,991.27
2017-02-24T10:46:15.969Z,991.27
2017-02-24T10:47:16.000Z,991.26
2017-02-24T10:48:16.024Z,991.29
2017-02-24T10:49:16.049Z,991.3
2017-02-24T10:50:16.081Z,991.4
2017-02-24T10:51:16.105Z,991.41
2017-02-24T10:52:16.134Z,991.44
2017-02-24T10:53:16.163Z,991.45
2017-02-24T10:54:16.414Z,991.46
2017-02-24T10:55:16.217Z,991.46
2017-02-24T10:56:16.246Z,991.48
2017-02-24T10:57:16.270Z,991.51
2017-02-24T10:58:16.299Z,991.44
2017-02-24T10:59:16.324Z,991.43
2017-02-24T11:00:16.356Z,991.4
2017-02-24T11:01:16.384Z,991.44
2017-02-24T11:02:16.406Z,991.43
2017-02-24T11:03:16.440Z,991.42
2017-02-24T11:04:16.460Z,991.46
2017-02-24T11:05:16.493Z,991.47
2017-02-24T11:06:16.521Z,991.49
2017-02-24T11:07:16.546Z,991.46
2017-02-24T11:08:16.575Z,991.41
2017-02-24T11:09:16.598Z,991.48
2017-02-24T11:10:16.628Z,991.42
2017-02-24T11:11:16.659Z,991.36
2017-02-24T11:12:16.686Z,991.38
2017-02-24T11:13:16.711Z,991.46
2017-02-24T11:14:16.740Z,991.49
2017-02-24T11:15:16.767Z,991.47
2017-02-24T11:16:16.798Z,991.48
2017-02-24T11:17:16.823Z,991.54
2017-02-24T11:18:16.851Z,991.5
2017-02-24T11:19:16.875Z,991.51
2017-02-24T11:20:16.908Z,991.53
2017-02-24T11:21:16.933Z,991.52
2017-02-24T11:22:16.962Z,991.5
2017-02-24T11:23:16.989Z,991.53
2017-02-24T11:24:17.015Z,991.49
2017-02-24T11:25:17.040Z,991.45
2017-02-24T11:26:17.073Z,991.45
2017-02-24T11:27:17.094Z,991.5
2017-02-24T11:28:17.127Z,991.52
2017-02-24T11:29:17.152Z,991.51
2017-02-24T11:30:17.184Z,991.47
2017-02-24T11:31:17.209Z,991.49
2017-02-24T11:32:17.238Z,991.55
2017-02-24T11:33:17.266Z,991.52
2017-02-24T11:34:17.290Z,991.47
2017-02-24T11:35:17.319Z,991.47
2017-02-24T11:36:17.349Z,991.5
2017-02-24T11:37:17.377Z,991.46
2017-02-24T11:38:17.397Z,991.43
2017-02-24T11:39:17.430Z,991.56
2017-02-24T11:40:17.459Z,991.53
2017-02-24T11:41:17.487Z,991.53
2017-02-24T11:42:17.764Z,991.52
2017-02-24T11:43:17.544Z,991.54
2017-02-24T11:44:17.566Z,991.62
2017-02-24T11:45:17.599Z,991.65
2017-02-24T11:46:17.623Z,991.61
2017-02-24T11:47:17.903Z,991.58
2017-02-24T11:48:17.681Z,991.59
2017-02-24T11:49:17.705Z,991.52
2017-02-24T11:50:17.734Z,991.54
2017-02-24T11:51:17.763Z,991.52
2017-02-24T11:52:18.040Z,991.44
2017-02-24T11:53:17.819Z,991.41
2017-02-24T11:54:17.851Z,991.42
2017-02-24T11:55:17.873Z,991.49
2017-02-24T11:56:17.905Z,991.41
2017-02-24T11:57:18.184Z,991.48
2017-02-24T11:58:17.961Z,991.49
2017-02-24T11:59:17.989Z,991.42
2017-02-24T12:00:18.018Z,991.5
2017-02-24T12:01:18.043Z,991.5
2017-02-24T12:02:18.323Z,991.59
2017-02-24T12:03:18.100Z,991.51
2017-02-24T12:04:18.130Z,991.49
2017-02-24T12:05:18.157Z,991.51
2017-02-24T12:06:18.182Z,991.51
2017-02-24T12:07:18.468Z,991.47
2017-02-24T12:08:18.240Z,991.5
2017-02-24T12:09:18.269Z,991.48
2017-02-24T12:10:18.297Z,991.59
2017-02-24T12:11:18.326Z,991.87
2017-02-24T12:12:18.602Z,991.49
2017-02-24T12:13:18.377Z,991.71
2017-02-24T12:14:18.408Z,991.49
2017-02-24T12:15:18.437Z,991.64
2017-02-24T12:16:18.465Z,991.64
2017-02-24T12:17:18.494Z,991.58
2017-02-24T12:18:18.522Z,991.5
2017-02-24T12:19:18.548Z,991.37
2017-02-24T12:20:18.573Z,991.41
2017-02-24T12:21:18.604Z,991.38
2017-02-24T12:22:18.633Z,991.44
2017-02-24T12:23:18.663Z,991.43
2017-02-24T12:24:18.689Z,991.47
2017-02-24T12:25:18.721Z,991.43
2017-02-24T12:26:18.749Z,991.45
2017-02-24T12:27:18.779Z,991.36
2017-02-24T12:28:18.803Z,991.32
2017-02-24T12:29:18.835Z,991.3
2017-02-24T12:30:18.860Z,991.21
2017-02-24T12:31:18.889Z,991.19